Flight Track Log - Related Links

Times and Time Zones

All times are in EDT time to prevent confusion due to time zone crossing. See the RPA3436 flight status page for this flight to view local times or setup timezone preferences in your user account.

Time Position Orientation Groundspeed Altitude Reporting Facility
EDT Latitude Longitude Course Direction KTS MPH feet Rate Location/Type
Sat 07:41:39 AM 39.7000 -86.3000 79° East 134 154 2,000  Level Indianapolis TRACON
Sat 07:42:21 AM 39.6833 -86.3167 218° Southwest 161 185 3,600 1,840 Climbing Indianapolis TRACON
Sat 07:42:54 AM 39.6586 -86.3008 154° Southeast 234 269 4,300 2,936 Climbing Indianapolis Center
Sat 07:43:55 AM 39.6717 -86.2136 79° East 258 297 8,200 3,541 Climbing Indianapolis Center
Sat 07:44:00 AM 39.7788 -85.8285 83° East  Level FlightAware Approximate
Sat 07:44:56 AM 39.6933 -86.1211 73° East 272 313 11,500  Level Indianapolis Center
Sat 07:45:00 AM 39.7941 -85.7137 79° East  Level FlightAware Approximate
Sat 07:45:57 AM 39.7236 -85.9833 74° East 332 382 15,300  Level Indianapolis Center
Sat 07:46:00 AM 39.8137 -85.5862 79° East  Level FlightAware Approximate
Sat 07:46:58 AM 39.7489 -85.8672 74° East 337 388 18,100  Level Indianapolis Center
Sat 07:47:59 AM 39.7767 -85.7408 74° East 364 419 20,600 2,410 Climbing Indianapolis Center
Sat 07:49:00 AM 39.8053 -85.6078 74° East 381 438 23,000 2,213 Climbing Indianapolis Center
Sat 07:50:01 AM 39.8356 -85.4692 74° East 398 458 25,100 2,164 Climbing Indianapolis Center
Sat 07:51:02 AM 39.8664 -85.3247 74° East 414 476 27,400 1,967 Climbing Indianapolis Center
Sat 07:52:03 AM 39.8878 -85.1769 79° East 417 480 29,100 1,770 Climbing Indianapolis Center
Sat 07:53:04 AM 39.8956 -85.0275 86° East 417 480 31,000 934 Climbing Indianapolis Center
Sat 07:54:05 AM 39.9142 -84.8556 82° East 413 475 31,000  Level Indianapolis Center
Sat 07:55:06 AM 39.9308 -84.7042 82° East 417 480 31,000  Level Indianapolis Center
Sat 07:56:07 AM 39.9481 -84.5564 81° East 412 474 31,000  Level Indianapolis Center
Sat 07:57:08 AM 39.9639 -84.4122 82° East 399 459 31,000  Level Indianapolis Center
Sat 07:58:09 AM 39.9806 -84.2656 82° East 404 465 31,000  Level Indianapolis Center
Sat 07:59:10 AM 39.9969 -84.1189 82° East 406 467 31,000  Level Indianapolis Center
Sat 08:00:11 AM 40.0003 -83.9744 88° East 393 452 31,000  Level Indianapolis Center
Sat 08:01:12 AM 39.9936 -83.8317 93° East 390 449 31,000  Level Indianapolis Center
Sat 08:02:13 AM 39.9867 -83.6897 94° East 388 447 31,000  Level Indianapolis Center
Sat 08:03:14 AM 39.9803 -83.5456 93° East 391 450 31,000  Level Indianapolis Center
Sat 08:04:15 AM 39.9728 -83.3978 94° East 396 456 31,000  Level Indianapolis Center
Sat 08:05:16 AM 39.9642 -83.2522 94° East 394 453 31,000  Level Indianapolis Center
Sat 08:06:17 AM 39.9561 -83.1081 94° East 393 452 31,000  Level Indianapolis Center
Sat 08:07:18 AM 39.9483 -82.9642 94° East 393 452 31,000  Level Indianapolis Center
Sat 08:08:19 AM 39.9400 -82.8203 94° East 395 455 31,000  Level Indianapolis Center
Sat 08:09:20 AM 39.9314 -82.6764 94° East 394 453 31,000  Level Indianapolis Center
Sat 08:10:21 AM 39.9231 -82.5328 94° East 395 455 31,000  Level Indianapolis Center
Sat 08:11:22 AM 39.9142 -82.3894 95° East 394 453 31,000  Level Indianapolis Center
Sat 08:12:23 AM 39.9056 -82.2453 94° East 395 455 31,000  Level Indianapolis Center
Sat 08:13:24 AM 39.8967 -82.1019 95° East 394 453 31,000  Level Indianapolis Center
Sat 08:14:25 AM 39.8875 -81.9583 95° East 395 455 31,000  Level Indianapolis Center
Sat 08:15:26 AM 39.8772 -81.8150 95° East 395 455 31,000  Level Indianapolis Center
Sat 08:16:27 AM 39.8683 -81.6722 95° East 392 451 31,000  Level Indianapolis Center
Sat 08:17:28 AM 39.8358 -81.5419 108° East 377 434 31,000  Level Indianapolis Center
Sat 08:18:29 AM 39.8011 -81.4261 111° Southeast 377 434 31,000  Level Indianapolis Center
Sat 08:19:30 AM 39.7614 -81.2992 112° Southeast 378 435 31,000  Level Indianapolis Center
Sat 08:20:31 AM 39.7136 -81.1450 112° Southeast 382 440 31,000  Level Indianapolis Center
Sat 08:21:32 AM 39.6750 -81.0178 111° Southeast 379 436 31,000  Level Indianapolis Center
Sat 08:22:34 AM 39.6350 -80.8911 112° Southeast 379 436 31,000  Level Indianapolis Center
Sat 08:23:35 AM 39.5953 -80.7644 112° Southeast 378 435 31,000  Level Indianapolis Center
Sat 08:24:36 AM 39.5553 -80.6369 112° Southeast 380 437 31,000  Level Indianapolis Center
Sat 08:25:37 AM 39.5139 -80.5097 113° Southeast 382 440 31,000  Level Indianapolis Center
Sat 08:27:30 AM 39.4453 -80.2842 111° Southeast 372 428 31,000  Level Washington Center
Sat 08:28:28 AM 39.4061 -80.1581 112° Southeast 378 435 31,000  Level Washington Center
Sat 08:29:28 AM 39.3650 -80.0344 113° Southeast 378 435 31,000  Level Washington Center
Sat 08:30:28 AM 39.3236 -79.9086 113° Southeast 378 435 31,000  Level Washington Center
Sat 08:31:29 AM 39.2928 -79.7808 107° East 378 435 31,000  Level Washington Center
Sat 08:32:30 AM 39.2811 -79.6378 96° East 378 435 31,000  Level Washington Center
Sat 08:33:28 AM 39.2711 -79.5006 95° East 388 447 31,000 -504 Level Washington Center
Sat 08:34:29 AM 39.2589 -79.3606 96° East 388 447 30,000 -1,574 Descending Washington Center
Sat 08:35:30 AM 39.2447 -79.2097 97° East 388 447 27,800 -1,650 Descending Washington Center
Sat 08:36:29 AM 39.2306 -79.0561 97° East 400 460 26,700 -1,311 Descending Washington Center
Sat 08:37:29 AM 39.2161 -78.9003 97° East 425 489 25,200 -1,884 Descending Washington Center
Sat 08:38:30 AM 39.2014 -78.7467 97° East 425 489 22,900 -2,579 Descending Washington Center
Sat 08:39:30 AM 39.1847 -78.5881 98° East 430 495 20,000 -2,542 Descending Washington Center
Sat 08:40:28 AM 39.1717 -78.4403 96° East 430 495 17,900 -1,513 Descending Washington Center
Sat 08:41:29 AM 39.1478 -78.3003 102° East 413 475 17,000 -443 Descending Washington Center
Sat 08:42:30 AM 39.1131 -78.1625 108° East 401 461 17,000 -504 Level Washington Center
Sat 08:43:28 AM 39.0786 -78.0247 108° East 401 461 16,000 -1,627 Descending Washington Center
Sat 08:44:28 AM 39.0436 -77.8928 109° East 401 461 13,800 -2,083 Descending Washington Center
Sat 08:45:29 AM 39.0106 -77.7661 109° East 388 447 11,800 -1,820 Descending Washington Center
Sat 08:46:30 AM 38.9811 -77.6506 108° East 346 398 10,100 -1,714 Descending Washington Center
Sat 08:47:07 AM 38.9667 -77.5833 105° East 293 337 9,000 -1,299 Descending Potomac TRACON
Sat 08:48:07 AM 38.9500 -77.4833 102° East 264 304 8,000 -474 Descending Potomac TRACON
Sat 08:49:01 AM 38.9833 -77.4167 57° Northeast 243 280 8,100 -421 Climbing Potomac TRACON
Sat 08:50:01 AM 39.0000 -77.3500 72° East 206 237 7,200 -850 Descending Potomac TRACON
Sat 08:51:01 AM 39.0333 -77.2833 57° Northeast 204 235 6,400 -895 Descending Potomac TRACON
Sat 08:51:55 AM 39.0333 -77.2333 90° East 204 235 5,500 -1,252 Descending Potomac TRACON
Sat 08:52:56 AM 39.0000 -77.1833 131° Southeast 183 211 4,000 -1,537 Descending Potomac TRACON
Sat 08:53:56 AM 38.9667 -77.1500 142° Southeast 188 216 2,400 -1,600 Descending Potomac TRACON

Login

Don't have an account? Register now (free) for customized features, flight alerts, and more!